createdAt,value
2019-02-06T00:10:01.320Z,77.2
2019-02-06T00:26:35.565Z,77.6
2019-02-06T00:43:09.446Z,77.6
2019-02-06T00:59:43.375Z,77.6
2019-02-06T01:16:17.351Z,77.6
2019-02-06T01:32:51.375Z,77.6
2019-02-06T01:49:25.307Z,77.6
2019-02-06T02:06:02.455Z,78.0
2019-02-06T02:22:32.728Z,78.0
2019-02-06T02:39:06.583Z,78.0
2019-02-06T02:55:40.246Z,78.0
2019-02-06T03:12:14.034Z,78.0
2019-02-06T03:28:47.872Z,78.4
2019-02-06T03:45:21.724Z,78.0
2019-02-06T04:01:55.529Z,78.0
2019-02-06T04:18:29.352Z,77.6
2019-02-06T04:35:03.153Z,78.0
2019-02-06T04:51:36.917Z,78.0
2019-02-06T05:08:10.692Z,77.6
2019-02-06T05:24:44.557Z,77.6
2019-02-06T05:41:18.559Z,77.6
2019-02-06T05:57:52.640Z,77.2
2019-02-06T06:14:26.903Z,77.2
2019-02-06T06:31:00.984Z,76.8
2019-02-06T06:47:35.217Z,76.8
2019-02-06T07:04:09.535Z,76.4
2019-02-06T07:20:43.821Z,76.4
2019-02-06T07:37:18.298Z,76.0
2019-02-06T07:53:52.589Z,75.6
2019-02-06T08:10:27.231Z,76.0
2019-02-06T08:27:02.302Z,75.2
2019-02-06T08:43:37.407Z,74.8
2019-02-06T09:00:12.783Z,74.0
2019-02-06T09:16:48.331Z,73.6
2019-02-06T09:33:24.247Z,72.8
2019-02-06T09:46:41.794Z,72.0
2019-02-06T10:03:18.317Z,71.2
2019-02-06T10:19:55.189Z,70.8
2019-02-06T10:36:32.005Z,70.0
2019-02-06T10:53:08.933Z,69.2
2019-02-06T11:09:46.608Z,68.4
2019-02-06T11:26:23.255Z,68.0
2019-02-06T11:43:00.721Z,67.2
2019-02-06T11:59:38.833Z,66.8
2019-02-06T12:16:15.966Z,66.4
2019-02-06T12:32:53.977Z,66.4
2019-02-06T12:49:31.600Z,66.4
2019-02-06T13:06:09.571Z,66.4
2019-02-06T13:22:47.751Z,66.8
2019-02-06T13:39:26.253Z,67.2
2019-02-06T13:56:04.269Z,68.0
2019-02-06T14:12:42.580Z,68.0
2019-02-06T14:29:21.009Z,68.0
2019-02-06T14:45:59.391Z,67.6
2019-02-06T15:02:37.827Z,67.6
2019-02-06T15:19:16.438Z,67.6
2019-02-06T15:35:57.669Z,66.8
2019-02-06T15:52:33.386Z,65.6
2019-02-06T16:09:12.073Z,65.2
2019-02-06T16:25:50.363Z,64.8
2019-02-06T16:42:28.813Z,64.4
2019-02-06T16:59:07.193Z,64.4
2019-02-06T17:15:45.594Z,64.4
2019-02-06T17:32:24.083Z,64.4
2019-02-06T17:49:02.137Z,64.4
2019-02-06T18:05:40.522Z,64.8
2019-02-06T18:22:18.565Z,64.8
2019-02-06T18:38:56.741Z,64.4
2019-02-06T18:55:34.980Z,64.4
2019-02-06T19:12:13.157Z,64.0
2019-02-06T19:28:51.407Z,63.6
2019-02-06T19:45:29.662Z,63.6
2019-02-06T20:02:07.843Z,63.6
2019-02-06T20:18:45.494Z,63.2
2019-02-06T20:35:23.301Z,63.6
2019-02-06T20:52:00.989Z,63.6
2019-02-06T21:08:40.276Z,64.0
2019-02-06T21:25:16.134Z,64.4
2019-02-06T21:41:53.577Z,65.2
2019-02-06T21:58:31.057Z,65.6
2019-02-06T22:15:08.341Z,66.0
2019-02-06T22:31:45.819Z,66.8
2019-02-06T22:48:23.007Z,67.2
2019-02-06T23:05:00.301Z,67.6
2019-02-06T23:21:37.308Z,68.4
2019-02-06T23:38:14.553Z,69.2
2019-02-06T23:54:51.702Z,69.2
